sensor_id;sensor_type;location;lat;lon;timestamp;temperature;humidity
66670;DHT22;53568;52.164;4.472;2023-06-26T00:00:25;27.53;50.30
66670;DHT22;53568;52.164;4.472;2023-06-26T00:02:51;27.36;50.45
66670;DHT22;53568;52.164;4.472;2023-06-26T00:05:16;27.20;50.60
66670;DHT22;53568;52.164;4.472;2023-06-26T00:07:42;27.05;50.77
66670;DHT22;53568;52.164;4.472;2023-06-26T00:10:08;26.99;51.32
66670;DHT22;53568;52.164;4.472;2023-06-26T00:12:34;26.89;51.94
66670;DHT22;53568;52.164;4.472;2023-06-26T00:14:59;26.75;52.55
66670;DHT22;53568;52.164;4.472;2023-06-26T00:17:25;26.51;53.41
66670;DHT22;53568;52.164;4.472;2023-06-26T00:19:51;26.32;53.93
66670;DHT22;53568;52.164;4.472;2023-06-26T00:22:17;26.11;54.65
66670;DHT22;53568;52.164;4.472;2023-06-26T00:24:42;25.81;55.04
66670;DHT22;53568;52.164;4.472;2023-06-26T00:27:10;25.53;55.64
66670;DHT22;53568;52.164;4.472;2023-06-26T00:29:36;25.40;55.88
66670;DHT22;53568;52.164;4.472;2023-06-26T00:32:01;25.27;55.90
66670;DHT22;53568;52.164;4.472;2023-06-26T00:34:26;25.15;56.31
66670;DHT22;53568;52.164;4.472;2023-06-26T00:36:52;25.00;56.55
66670;DHT22;53568;52.164;4.472;2023-06-26T00:39:18;25.00;56.59
66670;DHT22;53568;52.164;4.472;2023-06-26T00:41:43;24.95;56.91
66670;DHT22;53568;52.164;4.472;2023-06-26T00:44:09;24.90;57.30
66670;DHT22;53568;52.164;4.472;2023-06-26T00:46:35;24.72;58.01
66670;DHT22;53568;52.164;4.472;2023-06-26T00:49:03;24.49;58.99
66670;DHT22;53568;52.164;4.472;2023-06-26T00:51:30;24.45;59.15
66670;DHT22;53568;52.164;4.472;2023-06-26T00:53:56;24.41;59.38
66670;DHT22;53568;52.164;4.472;2023-06-26T00:56:23;24.35;59.69
66670;DHT22;53568;52.164;4.472;2023-06-26T00:58:49;24.29;60.09
66670;DHT22;53568;52.164;4.472;2023-06-26T01:01:15;24.24;60.34
66670;DHT22;53568;52.164;4.472;2023-06-26T01:03:49;24.12;60.72
66670;DHT22;53568;52.164;4.472;2023-06-26T01:06:20;24.14;60.94
66670;DHT22;53568;52.164;4.472;2023-06-26T01:08:47;24.15;60.96
66670;DHT22;53568;52.164;4.472;2023-06-26T01:11:14;24.08;61.06
66670;DHT22;53568;52.164;4.472;2023-06-26T01:13:42;24.07;61.30
66670;DHT22;53568;52.164;4.472;2023-06-26T01:16:10;24.00;61.56
66670;DHT22;53568;52.164;4.472;2023-06-26T01:18:38;24.07;61.38
66670;DHT22;53568;52.164;4.472;2023-06-26T01:21:07;24.12;61.34
66670;DHT22;53568;52.164;4.472;2023-06-26T01:24:02;24.20;61.25
66670;DHT22;53568;52.164;4.472;2023-06-26T01:26:32;24.02;61.96
66670;DHT22;53568;52.164;4.472;2023-06-26T01:29:03;23.94;62.37
66670;DHT22;53568;52.164;4.472;2023-06-26T01:31:30;23.90;62.54
66670;DHT22;53568;52.164;4.472;2023-06-26T01:33:58;23.74;63.00
66670;DHT22;53568;52.164;4.472;2023-06-26T01:36:25;23.77;62.98
66670;DHT22;53568;52.164;4.472;2023-06-26T01:38:51;23.75;62.87
66670;DHT22;53568;52.164;4.472;2023-06-26T01:41:18;23.42;64.25
66670;DHT22;53568;52.164;4.472;2023-06-26T01:46:40;23.20;65.31
66670;DHT22;53568;52.164;4.472;2023-06-26T01:49:38;23.12;65.71
66670;DHT22;53568;52.164;4.472;2023-06-26T01:52:28;22.93;66.46
66670;DHT22;53568;52.164;4.472;2023-06-26T01:57:45;22.77;67.01
66670;DHT22;53568;52.164;4.472;2023-06-26T02:00:15;22.75;67.31
66670;DHT22;53568;52.164;4.472;2023-06-26T02:02:44;22.72;67.47
66670;DHT22;53568;52.164;4.472;2023-06-26T02:05:11;22.68;67.62
66670;DHT22;53568;52.164;4.472;2023-06-26T02:07:36;22.69;67.69
66670;DHT22;53568;52.164;4.472;2023-06-26T02:10:02;22.69;67.61
66670;DHT22;53568;52.164;4.472;2023-06-26T02:12:28;22.70;67.42
66670;DHT22;53568;52.164;4.472;2023-06-26T02:14:54;22.68;67.37
66670;DHT22;53568;52.164;4.472;2023-06-26T02:17:19;22.68;67.43
66670;DHT22;53568;52.164;4.472;2023-06-26T02:19:45;22.70;67.25
66670;DHT22;53568;52.164;4.472;2023-06-26T02:22:16;22.73;66.92
66670;DHT22;53568;52.164;4.472;2023-06-26T02:24:42;22.65;66.92
66670;DHT22;53568;52.164;4.472;2023-06-26T02:27:09;22.53;67.40
66670;DHT22;53568;52.164;4.472;2023-06-26T02:29:35;22.46;67.70
66670;DHT22;53568;52.164;4.472;2023-06-26T02:32:01;22.41;67.88
66670;DHT22;53568;52.164;4.472;2023-06-26T02:34:27;22.34;67.95
66670;DHT22;53568;52.164;4.472;2023-06-26T02:36:53;22.29;68.12
66670;DHT22;53568;52.164;4.472;2023-06-26T02:39:22;22.15;68.64
66670;DHT22;53568;52.164;4.472;2023-06-26T02:41:48;22.15;68.73
66670;DHT22;53568;52.164;4.472;2023-06-26T02:44:13;22.25;68.55
66670;DHT22;53568;52.164;4.472;2023-06-26T02:46:39;22.35;68.19
66670;DHT22;53568;52.164;4.472;2023-06-26T02:49:06;22.31;68.20
66670;DHT22;53568;52.164;4.472;2023-06-26T02:51:32;22.25;68.30
66670;DHT22;53568;52.164;4.472;2023-06-26T02:53:58;22.18;68.46
66670;DHT22;53568;52.164;4.472;2023-06-26T02:56:23;22.18;68.45
66670;DHT22;53568;52.164;4.472;2023-06-26T02:58:49;22.08;68.44
66670;DHT22;53568;52.164;4.472;2023-06-26T03:01:14;22.04;68.46
66670;DHT22;53568;52.164;4.472;2023-06-26T03:03:41;22.09;68.42
66670;DHT22;53568;52.164;4.472;2023-06-26T03:06:08;22.12;68.46
66670;DHT22;53568;52.164;4.472;2023-06-26T03:08:36;22.12;68.26
66670;DHT22;53568;52.164;4.472;2023-06-26T03:11:03;22.01;68.61
66670;DHT22;53568;52.164;4.472;2023-06-26T03:13:28;22.08;68.57
66670;DHT22;53568;52.164;4.472;2023-06-26T03:15:53;22.14;68.24
66670;DHT22;53568;52.164;4.472;2023-06-26T03:18:19;22.08;68.38
66670;DHT22;53568;52.164;4.472;2023-06-26T03:20:45;22.08;68.34
66670;DHT22;53568;52.164;4.472;2023-06-26T03:23:11;22.05;68.23
66670;DHT22;53568;52.164;4.472;2023-06-26T03:25:36;22.02;68.31
66670;DHT22;53568;52.164;4.472;2023-06-26T03:28:02;22.04;68.20
66670;DHT22;53568;52.164;4.472;2023-06-26T03:30:27;22.04;68.19
66670;DHT22;53568;52.164;4.472;2023-06-26T03:32:53;22.11;68.02
66670;DHT22;53568;52.164;4.472;2023-06-26T03:35:18;22.09;67.69
66670;DHT22;53568;52.164;4.472;2023-06-26T03:37:44;21.95;68.04
66670;DHT22;53568;52.164;4.472;2023-06-26T03:40:10;21.92;68.12
66670;DHT22;53568;52.164;4.472;2023-06-26T03:42:35;21.98;68.21
66670;DHT22;53568;52.164;4.472;2023-06-26T03:45:01;21.94;68.06
66670;DHT22;53568;52.164;4.472;2023-06-26T03:47:26;21.98;67.96
66670;DHT22;53568;52.164;4.472;2023-06-26T03:49:52;22.05;67.82
66670;DHT22;53568;52.164;4.472;2023-06-26T03:52:17;22.02;67.84
66670;DHT22;53568;52.164;4.472;2023-06-26T03:54:43;22.04;67.78
66670;DHT22;53568;52.164;4.472;2023-06-26T03:57:08;22.01;68.02
66670;DHT22;53568;52.164;4.472;2023-06-26T03:59:34;21.97;67.97
66670;DHT22;53568;52.164;4.472;2023-06-26T04:01:59;21.87;68.04
66670;DHT22;53568;52.164;4.472;2023-06-26T04:04:25;21.73;68.93
66670;DHT22;53568;52.164;4.472;2023-06-26T04:06:50;21.75;69.03
66670;DHT22;53568;52.164;4.472;2023-06-26T04:09:16;21.70;68.99
66670;DHT22;53568;52.164;4.472;2023-06-26T04:11:42;21.64;68.98
66670;DHT22;53568;52.164;4.472;2023-06-26T04:14:07;21.44;69.49
66670;DHT22;53568;52.164;4.472;2023-06-26T04:16:33;21.49;69.53
66670;DHT22;53568;52.164;4.472;2023-06-26T04:18:58;21.61;69.33
66670;DHT22;53568;52.164;4.472;2023-06-26T04:21:24;21.68;68.59
66670;DHT22;53568;52.164;4.472;2023-06-26T04:23:50;21.75;67.98
66670;DHT22;53568;52.164;4.472;2023-06-26T04:26:16;21.81;67.33
66670;DHT22;53568;52.164;4.472;2023-06-26T04:28:43;21.90;66.39
66670;DHT22;53568;52.164;4.472;2023-06-26T04:31:08;21.78;66.43
66670;DHT22;53568;52.164;4.472;2023-06-26T04:33:35;21.65;66.43
66670;DHT22;53568;52.164;4.472;2023-06-26T04:36:06;21.40;67.48
66670;DHT22;53568;52.164;4.472;2023-06-26T04:38:32;21.43;67.41
66670;DHT22;53568;52.164;4.472;2023-06-26T04:40:59;21.47;67.48
66670;DHT22;53568;52.164;4.472;2023-06-26T04:43:25;21.61;67.11
66670;DHT22;53568;52.164;4.472;2023-06-26T04:45:50;21.68;67.20
66670;DHT22;53568;52.164;4.472;2023-06-26T04:48:16;21.81;66.92
66670;DHT22;53568;52.164;4.472;2023-06-26T04:50:42;21.94;66.43
66670;DHT22;53568;52.164;4.472;2023-06-26T04:53:10;21.98;66.37
66670;DHT22;53568;52.164;4.472;2023-06-26T04:55:36;22.05;66.65
66670;DHT22;53568;52.164;4.472;2023-06-26T04:58:01;22.11;67.13
66670;DHT22;53568;52.164;4.472;2023-06-26T05:00:27;22.22;67.43
66670;DHT22;53568;52.164;4.472;2023-06-26T05:02:52;22.09;67.85
66670;DHT22;53568;52.164;4.472;2023-06-26T05:05:27;22.01;67.61
66670;DHT22;53568;52.164;4.472;2023-06-26T05:07:56;21.87;67.90
66670;DHT22;53568;52.164;4.472;2023-06-26T05:10:22;21.82;68.13
66670;DHT22;53568;52.164;4.472;2023-06-26T05:12:47;21.74;68.32
66670;DHT22;53568;52.164;4.472;2023-06-26T05:15:13;21.85;68.35
66670;DHT22;53568;52.164;4.472;2023-06-26T05:17:39;21.92;68.02
66670;DHT22;53568;52.164;4.472;2023-06-26T05:20:04;22.04;67.50
66670;DHT22;53568;52.164;4.472;2023-06-26T05:22:32;22.16;67.34
66670;DHT22;53568;52.164;4.472;2023-06-26T05:24:59;22.19;67.35
66670;DHT22;53568;52.164;4.472;2023-06-26T05:27:26;22.14;67.73
66670;DHT22;53568;52.164;4.472;2023-06-26T05:29:52;22.09;67.51
66670;DHT22;53568;52.164;4.472;2023-06-26T05:32:18;22.00;67.78
66670;DHT22;53568;52.164;4.472;2023-06-26T05:34:47;22.00;67.39
66670;DHT22;53568;52.164;4.472;2023-06-26T05:37:25;22.06;66.80
66670;DHT22;53568;52.164;4.472;2023-06-26T05:39:51;22.16;66.11
66670;DHT22;53568;52.164;4.472;2023-06-26T05:42:17;22.12;65.66
66670;DHT22;53568;52.164;4.472;2023-06-26T05:44:43;21.97;64.75
66670;DHT22;53568;52.164;4.472;2023-06-26T05:47:08;21.58;65.59
66670;DHT22;53568;52.164;4.472;2023-06-26T05:49:34;21.53;65.13
66670;DHT22;53568;52.164;4.472;2023-06-26T05:52:00;21.41;65.42
66670;DHT22;53568;52.164;4.472;2023-06-26T05:54:25;21.20;65.68
66670;DHT22;53568;52.164;4.472;2023-06-26T05:56:56;21.11;66.11
66670;DHT22;53568;52.164;4.472;2023-06-26T05:59:22;21.11;65.76
66670;DHT22;53568;52.164;4.472;2023-06-26T06:01:48;21.27;65.54
66670;DHT22;53568;52.164;4.472;2023-06-26T06:04:14;21.28;65.34
66670;DHT22;53568;52.164;4.472;2023-06-26T06:06:39;21.37;65.33
66670;DHT22;53568;52.164;4.472;2023-06-26T06:09:05;21.31;64.77
66670;DHT22;53568;52.164;4.472;2023-06-26T06:11:31;21.20;64.93
66670;DHT22;53568;52.164;4.472;2023-06-26T06:13:57;21.28;64.88
66670;DHT22;53568;52.164;4.472;2023-06-26T06:16:24;21.20;64.56
66670;DHT22;53568;52.164;4.472;2023-06-26T06:18:50;21.08;63.35
66670;DHT22;53568;52.164;4.472;2023-06-26T06:21:15;21.02;63.35
66670;DHT22;53568;52.164;4.472;2023-06-26T06:23:41;21.17;63.34
66670;DHT22;53568;52.164;4.472;2023-06-26T06:26:07;21.20;62.58
66670;DHT22;53568;52.164;4.472;2023-06-26T06:28:32;21.17;62.28
66670;DHT22;53568;52.164;4.472;2023-06-26T06:30:57;21.31;62.24
66670;DHT22;53568;52.164;4.472;2023-06-26T06:33:23;21.28;61.62
66670;DHT22;53568;52.164;4.472;2023-06-26T06:35:48;21.24;61.47
66670;DHT22;53568;52.164;4.472;2023-06-26T06:38:14;21.04;62.33
66670;DHT22;53568;52.164;4.472;2023-06-26T06:40:39;20.99;62.78
66670;DHT22;53568;52.164;4.472;2023-06-26T06:43:05;20.96;63.32
66670;DHT22;53568;52.164;4.472;2023-06-26T06:45:30;20.93;62.74
66670;DHT22;53568;52.164;4.472;2023-06-26T06:47:56;20.95;62.40
66670;DHT22;53568;52.164;4.472;2023-06-26T06:50:21;20.86;63.10
66670;DHT22;53568;52.164;4.472;2023-06-26T06:52:47;20.97;63.10
66670;DHT22;53568;52.164;4.472;2023-06-26T06:55:12;20.90;62.71
66670;DHT22;53568;52.164;4.472;2023-06-26T06:57:39;20.51;63.58
66670;DHT22;53568;52.164;4.472;2023-06-26T07:00:10;20.46;64.00
66670;DHT22;53568;52.164;4.472;2023-06-26T07:02:41;20.46;63.92
66670;DHT22;53568;52.164;4.472;2023-06-26T07:05:07;20.52;64.12
66670;DHT22;53568;52.164;4.472;2023-06-26T07:07:33;20.53;63.61
66670;DHT22;53568;52.164;4.472;2023-06-26T07:10:08;20.35;63.77
66670;DHT22;53568;52.164;4.472;2023-06-26T07:12:35;20.09;64.98
66670;DHT22;53568;52.164;4.472;2023-06-26T07:15:02;20.24;64.86
66670;DHT22;53568;52.164;4.472;2023-06-26T07:17:28;20.43;63.45
66670;DHT22;53568;52.164;4.472;2023-06-26T07:19:53;20.42;63.41
66670;DHT22;53568;52.164;4.472;2023-06-26T07:22:19;20.51;63.21
66670;DHT22;53568;52.164;4.472;2023-06-26T07:24:48;20.51;62.67
66670;DHT22;53568;52.164;4.472;2023-06-26T07:27:17;20.55;62.63
66670;DHT22;53568;52.164;4.472;2023-06-26T07:29:46;20.42;63.02
66670;DHT22;53568;52.164;4.472;2023-06-26T07:32:11;20.28;63.50
66670;DHT22;53568;52.164;4.472;2023-06-26T07:34:37;20.25;63.74
66670;DHT22;53568;52.164;4.472;2023-06-26T07:37:03;20.25;63.81
66670;DHT22;53568;52.164;4.472;2023-06-26T07:39:29;20.22;64.03
66670;DHT22;53568;52.164;4.472;2023-06-26T07:41:55;20.41;63.96
66670;DHT22;53568;52.164;4.472;2023-06-26T07:44:22;20.56;63.77
66670;DHT22;53568;52.164;4.472;2023-06-26T07:46:47;20.69;63.43
66670;DHT22;53568;52.164;4.472;2023-06-26T07:49:13;20.82;63.30
66670;DHT22;53568;52.164;4.472;2023-06-26T07:51:39;20.89;62.96
66670;DHT22;53568;52.164;4.472;2023-06-26T07:54:05;20.75;63.20
66670;DHT22;53568;52.164;4.472;2023-06-26T07:56:30;20.85;62.32
66670;DHT22;53568;52.164;4.472;2023-06-26T07:58:56;20.90;62.39
66670;DHT22;53568;52.164;4.472;2023-06-26T08:01:24;20.95;61.52
66670;DHT22;53568;52.164;4.472;2023-06-26T08:03:49;20.83;61.43
66670;DHT22;53568;52.164;4.472;2023-06-26T08:06:15;20.77;62.75
66670;DHT22;53568;52.164;4.472;2023-06-26T08:08:41;20.79;62.59
66670;DHT22;53568;52.164;4.472;2023-06-26T08:11:06;20.89;62.48
66670;DHT22;53568;52.164;4.472;2023-06-26T08:13:32;20.97;61.77
66670;DHT22;53568;52.164;4.472;2023-06-26T08:15:58;20.93;61.71
66670;DHT22;53568;52.164;4.472;2023-06-26T08:18:25;20.87;61.22
66670;DHT22;53568;52.164;4.472;2023-06-26T08:20:51;20.75;61.62
66670;DHT22;53568;52.164;4.472;2023-06-26T08:23:17;20.77;62.29
66670;DHT22;53568;52.164;4.472;2023-06-26T08:25:45;20.69;61.91
66670;DHT22;53568;52.164;4.472;2023-06-26T08:28:12;20.63;62.04
66670;DHT22;53568;52.164;4.472;2023-06-26T08:30:37;20.65;61.75
66670;DHT22;53568;52.164;4.472;2023-06-26T08:33:03;20.59;61.43
66670;DHT22;53568;52.164;4.472;2023-06-26T08:35:29;20.66;61.81
66670;DHT22;53568;52.164;4.472;2023-06-26T08:37:54;20.68;62.13
66670;DHT22;53568;52.164;4.472;2023-06-26T08:40:21;20.83;62.19
66670;DHT22;53568;52.164;4.472;2023-06-26T08:42:46;20.90;62.20
66670;DHT22;53568;52.164;4.472;2023-06-26T08:45:12;20.95;61.74
66670;DHT22;53568;52.164;4.472;2023-06-26T08:47:38;20.96;61.66
66670;DHT22;53568;52.164;4.472;2023-06-26T08:50:10;20.93;62.24
66670;DHT22;53568;52.164;4.472;2023-06-26T08:52:43;20.83;61.94
66670;DHT22;53568;52.164;4.472;2023-06-26T08:55:14;20.83;62.53
66670;DHT22;53568;52.164;4.472;2023-06-26T08:57:41;20.82;62.95
66670;DHT22;53568;52.164;4.472;2023-06-26T09:00:07;20.83;61.81
66670;DHT22;53568;52.164;4.472;2023-06-26T09:02:35;20.76;61.50
66670;DHT22;53568;52.164;4.472;2023-06-26T09:05:02;20.68;62.17
66670;DHT22;53568;52.164;4.472;2023-06-26T09:07:28;20.75;62.05
66670;DHT22;53568;52.164;4.472;2023-06-26T09:09:54;20.77;62.85
66670;DHT22;53568;52.164;4.472;2023-06-26T09:12:20;20.51;63.03
66670;DHT22;53568;52.164;4.472;2023-06-26T09:14:47;20.57;62.18
66670;DHT22;53568;52.164;4.472;2023-06-26T09:17:13;20.66;61.31
66670;DHT22;53568;52.164;4.472;2023-06-26T09:19:39;20.72;61.65
66670;DHT22;53568;52.164;4.472;2023-06-26T09:22:11;20.85;61.78
66670;DHT22;53568;52.164;4.472;2023-06-26T09:24:41;21.02;61.24
66670;DHT22;53568;52.164;4.472;2023-06-26T09:27:07;21.10;61.06
66670;DHT22;53568;52.164;4.472;2023-06-26T09:29:32;21.11;59.98
66670;DHT22;53568;52.164;4.472;2023-06-26T09:31:59;21.10;60.34
66670;DHT22;53568;52.164;4.472;2023-06-26T09:34:32;20.93;60.73
66670;DHT22;53568;52.164;4.472;2023-06-26T09:36:58;20.89;60.71
66670;DHT22;53568;52.164;4.472;2023-06-26T09:39:24;20.79;60.44
66670;DHT22;53568;52.164;4.472;2023-06-26T09:41:50;20.59;60.07
66670;DHT22;53568;52.164;4.472;2023-06-26T09:44:15;20.56;60.70
66670;DHT22;53568;52.164;4.472;2023-06-26T09:46:45;20.63;60.79
66670;DHT22;53568;52.164;4.472;2023-06-26T09:49:14;20.75;61.02
66670;DHT22;53568;52.164;4.472;2023-06-26T09:51:42;20.80;59.97
66670;DHT22;53568;52.164;4.472;2023-06-26T09:54:09;20.80;60.11
66670;DHT22;53568;52.164;4.472;2023-06-26T09:56:35;20.87;60.24
66670;DHT22;53568;52.164;4.472;2023-06-26T09:59:05;21.04;60.49
66670;DHT22;53568;52.164;4.472;2023-06-26T10:01:39;21.07;59.79
66670;DHT22;53568;52.164;4.472;2023-06-26T10:04:05;21.10;59.57
66670;DHT22;53568;52.164;4.472;2023-06-26T10:06:45;21.07;59.72
66670;DHT22;53568;52.164;4.472;2023-06-26T10:09:17;20.99;59.29
66670;DHT22;53568;52.164;4.472;2023-06-26T10:12:05;20.89;59.89
66670;DHT22;53568;52.164;4.472;2023-06-26T10:14:34;20.92;60.03
66670;DHT22;53568;52.164;4.472;2023-06-26T10:17:04;20.83;60.70
66670;DHT22;53568;52.164;4.472;2023-06-26T10:19:33;21.00;60.10
66670;DHT22;53568;52.164;4.472;2023-06-26T10:22:01;21.14;59.29
66670;DHT22;53568;52.164;4.472;2023-06-26T10:24:31;21.11;59.26
66670;DHT22;53568;52.164;4.472;2023-06-26T10:27:04;21.02;59.89
66670;DHT22;53568;52.164;4.472;2023-06-26T10:29:35;20.92;59.27
66670;DHT22;53568;52.164;4.472;2023-06-26T10:32:04;20.85;60.19
66670;DHT22;53568;52.164;4.472;2023-06-26T10:34:31;20.83;59.57
66670;DHT22;53568;52.164;4.472;2023-06-26T10:37:01;20.83;60.49
66670;DHT22;53568;52.164;4.472;2023-06-26T10:39:46;21.02;59.32
66670;DHT22;53568;52.164;4.472;2023-06-26T10:42:28;21.14;59.68
66670;DHT22;53568;52.164;4.472;2023-06-26T10:45:10;21.02;59.09
66670;DHT22;53568;52.164;4.472;2023-06-26T10:47:40;20.96;59.87
66670;DHT22;53568;52.164;4.472;2023-06-26T10:55:41;21.00;58.99
66670;DHT22;53568;52.164;4.472;2023-06-26T11:01:26;21.27;59.11
66670;DHT22;53568;52.164;4.472;2023-06-26T11:06:23;21.36;58.01
66670;DHT22;53568;52.164;4.472;2023-06-26T11:08:49;21.39;57.73
66670;DHT22;53568;52.164;4.472;2023-06-26T11:11:16;21.34;57.70
66670;DHT22;53568;52.164;4.472;2023-06-26T11:13:44;21.27;58.38
66670;DHT22;53568;52.164;4.472;2023-06-26T11:16:11;21.22;58.32
66670;DHT22;53568;52.164;4.472;2023-06-26T11:18:38;21.26;58.29
66670;DHT22;53568;52.164;4.472;2023-06-26T11:21:12;21.22;58.88
66670;DHT22;53568;52.164;4.472;2023-06-26T11:23:40;20.90;59.91
66670;DHT22;53568;52.164;4.472;2023-06-26T11:26:43;20.77;60.23
66670;DHT22;53568;52.164;4.472;2023-06-26T11:29:12;20.87;60.32
66670;DHT22;53568;52.164;4.472;2023-06-26T11:31:40;21.20;59.30
66670;DHT22;53568;52.164;4.472;2023-06-26T11:34:15;21.46;58.28
66670;DHT22;53568;52.164;4.472;2023-06-26T11:36:42;21.28;58.54
66670;DHT22;53568;52.164;4.472;2023-06-26T11:39:08;21.34;57.22
66670;DHT22;53568;52.164;4.472;2023-06-26T11:41:40;21.31;58.12
66670;DHT22;53568;52.164;4.472;2023-06-26T11:44:08;21.55;57.65
66670;DHT22;53568;52.164;4.472;2023-06-26T11:46:37;21.50;58.18
66670;DHT22;53568;52.164;4.472;2023-06-26T11:49:04;21.60;58.26
66670;DHT22;53568;52.164;4.472;2023-06-26T11:51:30;21.50;58.05
66670;DHT22;53568;52.164;4.472;2023-06-26T11:53:56;21.61;57.65
66670;DHT22;53568;52.164;4.472;2023-06-26T11:56:21;21.58;57.16
66670;DHT22;53568;52.164;4.472;2023-06-26T11:59:05;21.50;56.85
66670;DHT22;53568;52.164;4.472;2023-06-26T12:01:36;21.36;56.63
66670;DHT22;53568;52.164;4.472;2023-06-26T12:04:07;21.33;57.85
66670;DHT22;53568;52.164;4.472;2023-06-26T12:06:35;21.27;57.87
66670;DHT22;53568;52.164;4.472;2023-06-26T12:09:05;21.24;57.29
66670;DHT22;53568;52.164;4.472;2023-06-26T12:11:38;21.26;57.84
66670;DHT22;53568;52.164;4.472;2023-06-26T12:14:05;21.26;56.96
66670;DHT22;53568;52.164;4.472;2023-06-26T12:16:35;21.34;57.28
66670;DHT22;53568;52.164;4.472;2023-06-26T12:19:05;21.40;58.60
66670;DHT22;53568;52.164;4.472;2023-06-26T12:24:04;21.28;56.36
66670;DHT22;53568;52.164;4.472;2023-06-26T12:26:30;21.10;57.07
66670;DHT22;53568;52.164;4.472;2023-06-26T12:31:28;21.41;56.83
66670;DHT22;53568;52.164;4.472;2023-06-26T12:33:54;21.34;57.58
66670;DHT22;53568;52.164;4.472;2023-06-26T12:36:19;21.23;57.80
66670;DHT22;53568;52.164;4.472;2023-06-26T12:38:46;21.26;57.92
66670;DHT22;53568;52.164;4.472;2023-06-26T12:41:13;21.41;57.03
66670;DHT22;53568;52.164;4.472;2023-06-26T12:43:41;21.58;55.96
66670;DHT22;53568;52.164;4.472;2023-06-26T12:46:08;21.60;56.15
66670;DHT22;53568;52.164;4.472;2023-06-26T12:48:41;21.54;55.13
66670;DHT22;53568;52.164;4.472;2023-06-26T12:51:13;21.55;55.34
66670;DHT22;53568;52.164;4.472;2023-06-26T12:53:40;21.55;55.39
66670;DHT22;53568;52.164;4.472;2023-06-26T12:56:07;21.23;57.02
66670;DHT22;53568;52.164;4.472;2023-06-26T12:58:37;21.34;57.04
66670;DHT22;53568;52.164;4.472;2023-06-26T13:01:07;21.46;56.51
66670;DHT22;53568;52.164;4.472;2023-06-26T13:03:38;21.47;57.39
66670;DHT22;53568;52.164;4.472;2023-06-26T13:06:04;21.47;55.49
66670;DHT22;53568;52.164;4.472;2023-06-26T13:08:30;21.44;57.14
66670;DHT22;53568;52.164;4.472;2023-06-26T13:10:55;21.50;57.19
66670;DHT22;53568;52.164;4.472;2023-06-26T13:13:21;21.53;57.60
66670;DHT22;53568;52.164;4.472;2023-06-26T13:15:47;21.75;57.06
66670;DHT22;53568;52.164;4.472;2023-06-26T13:18:13;21.78;57.01
66670;DHT22;53568;52.164;4.472;2023-06-26T13:20:38;21.84;56.79
66670;DHT22;53568;52.164;4.472;2023-06-26T13:23:04;21.95;55.16
66670;DHT22;53568;52.164;4.472;2023-06-26T13:25:29;22.00;55.64
66670;DHT22;53568;52.164;4.472;2023-06-26T13:27:55;22.18;54.66
66670;DHT22;53568;52.164;4.472;2023-06-26T13:30:21;22.22;55.37
66670;DHT22;53568;52.164;4.472;2023-06-26T13:32:47;22.16;50.89
66670;DHT22;53568;52.164;4.472;2023-06-26T13:35:12;22.05;52.71
66670;DHT22;53568;52.164;4.472;2023-06-26T13:37:40;22.12;53.63
66670;DHT22;53568;52.164;4.472;2023-06-26T13:40:07;22.05;54.36
66670;DHT22;53568;52.164;4.472;2023-06-26T13:42:33;22.01;54.46
66670;DHT22;53568;52.164;4.472;2023-06-26T13:44:58;22.11;53.66
66670;DHT22;53568;52.164;4.472;2023-06-26T13:47:24;22.28;52.91
66670;DHT22;53568;52.164;4.472;2023-06-26T13:49:49;22.11;52.51
66670;DHT22;53568;52.164;4.472;2023-06-26T13:52:15;22.04;53.51
66670;DHT22;53568;52.164;4.472;2023-06-26T13:54:41;21.88;51.77
66670;DHT22;53568;52.164;4.472;2023-06-26T13:57:07;22.00;53.34
66670;DHT22;53568;52.164;4.472;2023-06-26T13:59:33;21.74;52.39
66670;DHT22;53568;52.164;4.472;2023-06-26T14:01:59;21.57;53.36
66670;DHT22;53568;52.164;4.472;2023-06-26T14:04:25;21.65;54.60
66670;DHT22;53568;52.164;4.472;2023-06-26T14:06:51;21.74;56.67
66670;DHT22;53568;52.164;4.472;2023-06-26T14:09:17;21.82;52.65
66670;DHT22;53568;52.164;4.472;2023-06-26T14:11:43;21.97;52.03
66670;DHT22;53568;52.164;4.472;2023-06-26T14:14:09;22.05;52.41
66670;DHT22;53568;52.164;4.472;2023-06-26T14:16:35;22.15;53.13
66670;DHT22;53568;52.164;4.472;2023-06-26T14:19:00;22.31;53.88
66670;DHT22;53568;52.164;4.472;2023-06-26T14:21:27;22.28;52.65
66670;DHT22;53568;52.164;4.472;2023-06-26T14:23:56;22.16;52.75
66670;DHT22;53568;52.164;4.472;2023-06-26T14:26:21;22.15;53.35
66670;DHT22;53568;52.164;4.472;2023-06-26T14:28:47;22.05;53.16
66670;DHT22;53568;52.164;4.472;2023-06-26T14:31:13;22.08;53.35
66670;DHT22;53568;52.164;4.472;2023-06-26T14:33:39;21.88;53.90
66670;DHT22;53568;52.164;4.472;2023-06-26T14:36:04;22.04;54.07
66670;DHT22;53568;52.164;4.472;2023-06-26T14:38:30;22.19;53.74
66670;DHT22;53568;52.164;4.472;2023-06-26T14:40:55;22.06;53.58
66670;DHT22;53568;52.164;4.472;2023-06-26T14:43:21;22.15;52.52
66670;DHT22;53568;52.164;4.472;2023-06-26T14:45:47;22.14;53.42
66670;DHT22;53568;52.164;4.472;2023-06-26T14:48:13;22.14;53.32
66670;DHT22;53568;52.164;4.472;2023-06-26T14:50:39;22.29;53.63
66670;DHT22;53568;52.164;4.472;2023-06-26T14:53:04;22.42;53.12
66670;DHT22;53568;52.164;4.472;2023-06-26T14:55:30;22.28;53.20
66670;DHT22;53568;52.164;4.472;2023-06-26T14:57:55;22.24;54.06
66670;DHT22;53568;52.164;4.472;2023-06-26T15:00:21;22.01;54.28
66670;DHT22;53568;52.164;4.472;2023-06-26T15:02:47;22.08;54.62
66670;DHT22;53568;52.164;4.472;2023-06-26T15:05:13;22.05;55.00
66670;DHT22;53568;52.164;4.472;2023-06-26T15:07:39;22.14;55.40
66670;DHT22;53568;52.164;4.472;2023-06-26T15:10:05;22.22;55.37
66670;DHT22;53568;52.164;4.472;2023-06-26T15:12:32;21.94;55.74
66670;DHT22;53568;52.164;4.472;2023-06-26T15:14:57;21.97;56.28
66670;DHT22;53568;52.164;4.472;2023-06-26T15:17:23;21.97;55.10
66670;DHT22;53568;52.164;4.472;2023-06-26T15:19:48;22.02;54.80
66670;DHT22;53568;52.164;4.472;2023-06-26T15:22:17;21.98;55.72
66670;DHT22;53568;52.164;4.472;2023-06-26T15:24:43;22.04;56.34
66670;DHT22;53568;52.164;4.472;2023-06-26T15:27:09;22.11;55.95
66670;DHT22;53568;52.164;4.472;2023-06-26T15:29:34;22.31;55.63
66670;DHT22;53568;52.164;4.472;2023-06-26T15:32:00;22.35;55.22
66670;DHT22;53568;52.164;4.472;2023-06-26T15:34:25;22.45;55.36
66670;DHT22;53568;52.164;4.472;2023-06-26T15:36:51;22.52;54.63
66670;DHT22;53568;52.164;4.472;2023-06-26T15:39:16;22.29;55.50
66670;DHT22;53568;52.164;4.472;2023-06-26T15:41:43;22.16;56.73
66670;DHT22;53568;52.164;4.472;2023-06-26T15:44:09;22.02;55.99
66670;DHT22;53568;52.164;4.472;2023-06-26T15:46:35;22.14;55.73
66670;DHT22;53568;52.164;4.472;2023-06-26T15:49:00;22.25;55.48
66670;DHT22;53568;52.164;4.472;2023-06-26T15:51:26;22.28;55.77